Terminal Aerodrome Forecast
Issued by NWS Jackson, MS

Current Version | Previous Version | Text Only | Print | Product List | Glossary On
Versions: 1 2 3 4 5 6 7 8 9 10 11 12 13 14
000
FTUS44 KJAN 200536
TAFGWO
TAF
KGWO 200536Z 2006/2106 16005KT 6SM BR FEW008 SCT015 BKN035
     FM201100 18008KT 5SM BR BKN015 OVC025
     FM201500 20012G20KT P6SM BKN015
     FM202000 18010KT P6SM FEW035 SCT120=

USA.gov is the U.S. government's official web portal to all federal, state and local government web resources and services.